createdAt,value
2018-09-11T00:01:01.764Z,5.27
2018-09-11T00:03:30.148Z,4.53
2018-09-11T00:05:58.542Z,4.80
2018-09-11T00:08:26.944Z,4.60
2018-09-11T00:10:55.352Z,3.93
2018-09-11T00:13:23.769Z,4.40
2018-09-11T00:15:52.211Z,4.60
2018-09-11T00:18:20.637Z,3.97
2018-09-11T00:20:49.066Z,3.80
2018-09-11T00:23:17.469Z,4.17
2018-09-11T00:25:45.852Z,3.80
2018-09-11T00:28:14.257Z,3.20
2018-09-11T00:30:42.662Z,3.13
2018-09-11T00:33:11.081Z,3.27
2018-09-11T00:35:39.485Z,3.67
2018-09-11T00:38:08.203Z,3.20
2018-09-11T00:40:36.612Z,3.40
2018-09-11T00:43:05.029Z,3.23
2018-09-11T00:45:33.408Z,2.70
2018-09-11T00:48:01.825Z,3.10
2018-09-11T00:50:30.197Z,2.50
2018-09-11T00:52:58.610Z,2.97
2018-09-11T00:55:26.988Z,2.80
2018-09-11T00:57:55.388Z,2.70
2018-09-11T01:00:23.789Z,3.13
2018-09-11T01:02:52.192Z,2.33
2018-09-11T01:05:20.598Z,3.00
2018-09-11T01:07:49.001Z,2.50
2018-09-11T01:10:17.490Z,3.00
2018-09-11T01:12:45.920Z,2.90
2018-09-11T01:15:14.324Z,3.00
2018-09-11T01:17:42.721Z,2.63
2018-09-11T01:20:11.113Z,2.60
2018-09-11T01:22:39.497Z,2.73
2018-09-11T01:25:07.912Z,2.60
2018-09-11T01:27:37.004Z,2.53
2018-09-11T01:30:06.608Z,2.20
2018-09-11T01:32:34.980Z,2.30
2018-09-11T01:35:03.449Z,3.43
2018-09-11T01:37:31.826Z,2.90
2018-09-11T01:40:00.231Z,3.00
2018-09-11T01:42:28.605Z,2.70
2018-09-11T01:44:56.996Z,2.50
2018-09-11T01:47:25.388Z,2.90
2018-09-11T01:49:53.956Z,3.67
2018-09-11T01:52:22.336Z,2.87
2018-09-11T01:54:50.771Z,2.90
2018-09-11T01:57:19.152Z,2.93
2018-09-11T01:59:47.584Z,2.70
2018-09-11T02:02:15.980Z,2.90
2018-09-11T02:04:44.380Z,2.80
2018-09-11T02:07:12.789Z,2.70
2018-09-11T02:09:41.192Z,3.20
2018-09-11T02:12:09.620Z,2.90
2018-09-11T02:14:38.019Z,3.30
2018-09-11T02:17:06.431Z,3.10
2018-09-11T02:19:34.814Z,3.13
2018-09-11T02:22:03.428Z,2.90
2018-09-11T02:24:31.823Z,3.20
2018-09-11T02:27:00.214Z,2.73
2018-09-11T02:29:28.668Z,3.30
2018-09-11T02:31:57.065Z,3.00
2018-09-11T02:34:25.472Z,3.00
2018-09-11T02:36:53.912Z,2.83
2018-09-11T02:39:22.309Z,2.87
2018-09-11T02:41:50.797Z,2.50
2018-09-11T02:44:19.293Z,3.30
2018-09-11T02:46:47.704Z,2.70
2018-09-11T02:49:16.110Z,2.73
2018-09-11T02:51:44.564Z,2.87
2018-09-11T02:54:12.968Z,3.30
2018-09-11T02:56:41.412Z,2.80
2018-09-11T02:59:09.797Z,2.80
2018-09-11T03:01:38.245Z,2.80
2018-09-11T03:04:06.636Z,2.63
2018-09-11T03:06:35.037Z,3.00
2018-09-11T03:09:03.962Z,2.90
2018-09-11T03:11:32.369Z,2.83
2018-09-11T03:14:00.733Z,2.70
2018-09-11T03:16:29.144Z,3.10
2018-09-11T03:18:57.658Z,2.53
2018-09-11T03:21:25.928Z,3.07
2018-09-11T03:23:54.313Z,2.80
2018-09-11T03:26:22.960Z,2.80
2018-09-11T03:28:51.533Z,2.70
2018-09-11T03:31:19.965Z,3.30
2018-09-11T03:33:49.315Z,2.40
2018-09-11T03:36:17.705Z,3.03
2018-09-11T03:38:46.121Z,2.87
2018-09-11T03:41:14.640Z,2.43
2018-09-11T03:43:43.168Z,2.70
2018-09-11T03:46:11.594Z,2.40
2018-09-11T03:48:39.997Z,2.70
2018-09-11T03:51:08.381Z,2.70
2018-09-11T03:53:36.800Z,2.70
2018-09-11T03:56:05.209Z,2.70
2018-09-11T03:58:33.649Z,2.47
2018-09-11T04:01:02.024Z,2.50
2018-09-11T04:03:30.412Z,2.53
2018-09-11T04:05:58.779Z,2.73
2018-09-11T04:08:27.164Z,2.63
2018-09-11T04:10:55.551Z,2.53
2018-09-11T04:13:23.951Z,2.23
2018-09-11T04:15:52.552Z,2.70
2018-09-11T04:18:20.965Z,2.63
2018-09-11T04:20:49.422Z,2.70
2018-09-11T04:23:17.828Z,2.53
2018-09-11T04:25:46.313Z,1.97
2018-09-11T04:28:14.717Z,2.53
2018-09-11T04:30:43.145Z,2.90
2018-09-11T04:33:11.530Z,2.63
2018-09-11T04:35:39.925Z,2.83
2018-09-11T04:38:08.315Z,2.33
2018-09-11T04:40:36.715Z,2.40
2018-09-11T04:43:05.238Z,2.03
2018-09-11T04:45:33.552Z,2.20
2018-09-11T04:48:01.932Z,2.60
2018-09-11T04:50:30.394Z,2.50
2018-09-11T04:52:58.888Z,2.10
2018-09-11T04:55:27.388Z,2.00
2018-09-11T04:57:55.949Z,1.90
2018-09-11T05:00:27.602Z,2.33
2018-09-11T05:02:56.077Z,2.40
2018-09-11T05:05:24.749Z,2.17
2018-09-11T05:07:53.199Z,2.40
2018-09-11T05:10:21.936Z,2.27
2018-09-11T05:12:50.658Z,2.40
2018-09-11T05:15:19.087Z,2.70
2018-09-11T05:17:47.552Z,2.37
2018-09-11T05:20:15.955Z,2.60
2018-09-11T05:22:44.333Z,3.33
2018-09-11T05:25:12.724Z,2.40
2018-09-11T05:27:41.137Z,2.23
2018-09-11T05:30:09.569Z,2.70
2018-09-11T05:32:37.992Z,2.27
2018-09-11T05:35:06.408Z,2.63
2018-09-11T05:37:34.957Z,2.80
2018-09-11T05:40:03.655Z,2.30
2018-09-11T05:42:32.065Z,2.50
2018-09-11T05:45:00.608Z,2.13
2018-09-11T05:47:28.988Z,2.67
2018-09-11T05:49:57.382Z,2.60
2018-09-11T05:52:25.810Z,2.40
2018-09-11T05:54:54.256Z,2.40
2018-09-11T05:57:22.665Z,2.07
2018-09-11T05:59:51.697Z,2.27
2018-09-11T06:02:20.577Z,2.30
2018-09-11T06:04:49.037Z,2.50
2018-09-11T06:07:17.435Z,2.67
2018-09-11T06:09:45.839Z,2.00
2018-09-11T06:12:14.248Z,2.17
2018-09-11T06:14:42.748Z,2.43
2018-09-11T06:17:11.144Z,2.67
2018-09-11T06:19:39.593Z,2.40
2018-09-11T06:22:08.102Z,1.90
2018-09-11T06:24:36.518Z,2.10
2018-09-11T06:27:05.172Z,1.80
2018-09-11T06:29:33.584Z,1.93
2018-09-11T06:32:01.999Z,2.57
2018-09-11T06:34:30.412Z,2.40
2018-09-11T06:36:58.815Z,2.00
2018-09-11T06:39:27.229Z,1.87
2018-09-11T06:41:55.600Z,2.23
2018-09-11T06:44:23.993Z,2.20
2018-09-11T06:46:52.401Z,2.27
2018-09-11T06:49:20.778Z,1.90
2018-09-11T06:51:49.168Z,2.27
2018-09-11T06:54:17.576Z,2.40
2018-09-11T06:56:45.960Z,1.90
2018-09-11T06:59:14.352Z,2.20
2018-09-11T07:01:42.770Z,2.50
2018-09-11T07:04:11.163Z,2.20
2018-09-11T07:06:39.560Z,2.30
2018-09-11T07:09:09.861Z,2.10
2018-09-11T07:11:38.284Z,2.30
2018-09-11T07:14:06.940Z,2.00
2018-09-11T07:16:35.418Z,2.00
2018-09-11T07:19:03.825Z,1.80
2018-09-11T07:21:32.221Z,2.20
2018-09-11T07:24:00.608Z,2.20
2018-09-11T07:26:29.032Z,2.10
2018-09-11T07:28:57.413Z,2.50
2018-09-11T07:31:25.887Z,2.10
2018-09-11T07:33:54.244Z,2.03
2018-09-11T07:36:22.679Z,2.00
2018-09-11T07:38:51.036Z,1.87
2018-09-11T07:41:19.468Z,2.00
2018-09-11T07:43:47.894Z,1.77
2018-09-11T07:46:16.356Z,1.97
2018-09-11T07:48:44.778Z,1.97
2018-09-11T07:51:13.180Z,1.67
2018-09-11T07:53:41.545Z,2.30
2018-09-11T07:56:09.976Z,2.00
2018-09-11T07:58:38.364Z,1.73
2018-09-11T08:01:06.800Z,1.90
2018-09-11T08:03:35.176Z,2.37
2018-09-11T08:06:03.585Z,2.37
2018-09-11T08:08:32.423Z,2.23
2018-09-11T08:11:00.829Z,2.00
2018-09-11T08:13:29.220Z,1.70
2018-09-11T08:15:57.672Z,1.87
2018-09-11T08:18:26.050Z,1.93
2018-09-11T08:20:54.628Z,1.60
2018-09-11T08:23:23.024Z,2.17
2018-09-11T08:25:51.412Z,2.10
2018-09-11T08:28:19.849Z,1.80
2018-09-11T08:30:48.215Z,2.17
2018-09-11T08:33:16.618Z,1.90
2018-09-11T08:35:45.108Z,1.80
2018-09-11T08:38:13.513Z,1.90
2018-09-11T08:40:41.896Z,1.80
2018-09-11T08:43:10.297Z,1.43
2018-09-11T08:45:38.931Z,2.03
2018-09-11T08:48:07.323Z,1.90
2018-09-11T08:50:35.712Z,2.50
2018-09-11T08:53:04.257Z,1.73
2018-09-11T08:55:32.621Z,1.93
2018-09-11T08:58:01.060Z,1.87
2018-09-11T09:00:29.456Z,1.97
2018-09-11T09:02:57.868Z,1.90
2018-09-11T09:05:26.257Z,2.10
2018-09-11T09:07:54.668Z,2.10
2018-09-11T09:10:23.345Z,1.90
2018-09-11T09:12:51.873Z,2.27
2018-09-11T09:15:20.273Z,2.03
2018-09-11T09:17:48.680Z,2.10
2018-09-11T09:20:17.077Z,2.20
2018-09-11T09:22:45.528Z,2.20
2018-09-11T09:25:13.929Z,2.03
2018-09-11T09:27:42.321Z,2.00
2018-09-11T09:30:10.726Z,2.00
2018-09-11T09:32:39.101Z,2.23
2018-09-11T09:35:07.820Z,2.40
2018-09-11T09:37:36.208Z,2.27
2018-09-11T09:40:04.732Z,2.17
2018-09-11T09:42:33.136Z,2.10
2018-09-11T09:45:01.555Z,1.90
2018-09-11T09:47:29.951Z,2.00
2018-09-11T09:49:58.348Z,1.90
2018-09-11T09:52:26.760Z,2.20
2018-09-11T09:54:55.263Z,2.10
2018-09-11T09:57:23.674Z,1.57
2018-09-11T09:59:52.073Z,2.10
2018-09-11T10:02:23.157Z,2.13
2018-09-11T10:04:52.194Z,2.03
2018-09-11T10:07:21.231Z,2.30
2018-09-11T10:09:49.837Z,2.30
2018-09-11T10:12:18.261Z,2.07
2018-09-11T10:14:46.692Z,2.20
2018-09-11T10:17:15.091Z,2.33
2018-09-11T10:19:43.517Z,2.23
2018-09-11T10:22:11.912Z,2.60
2018-09-11T10:24:40.309Z,1.80
2018-09-11T10:27:09.152Z,2.30
2018-09-11T10:29:37.548Z,2.40
2018-09-11T10:32:06.164Z,2.20
2018-09-11T10:34:34.577Z,2.00
2018-09-11T10:37:02.992Z,2.70
2018-09-11T10:39:31.468Z,2.23
2018-09-11T10:41:59.800Z,2.10
2018-09-11T10:44:28.188Z,2.80
2018-09-11T10:46:56.596Z,2.20
2018-09-11T10:49:25.039Z,2.30
2018-09-11T10:51:53.454Z,2.37
2018-09-11T10:54:21.845Z,2.17
2018-09-11T10:56:50.248Z,2.20
2018-09-11T10:59:18.652Z,2.47
2018-09-11T11:01:47.139Z,2.20
2018-09-11T11:04:15.563Z,2.43
2018-09-11T11:06:43.965Z,2.53
2018-09-11T11:09:12.394Z,2.20
2018-09-11T11:11:40.803Z,2.27
2018-09-11T11:14:09.719Z,2.27
2018-09-11T11:16:38.136Z,2.60
2018-09-11T11:19:06.657Z,2.43
2018-09-11T11:21:35.165Z,2.20
2018-09-11T11:24:03.586Z,2.23
2018-09-11T11:26:31.962Z,2.27
2018-09-11T11:29:00.389Z,1.90
2018-09-11T11:31:28.796Z,2.60
2018-09-11T11:33:57.328Z,2.87
2018-09-11T11:36:25.945Z,2.37
2018-09-11T11:38:54.205Z,2.47
2018-09-11T11:41:22.585Z,2.80
2018-09-11T11:43:51.016Z,2.07
2018-09-11T11:46:19.410Z,2.40
2018-09-11T11:48:47.831Z,2.40
2018-09-11T11:51:16.975Z,2.67
2018-09-11T11:53:45.500Z,2.50
2018-09-11T11:56:13.905Z,2.43
2018-09-11T11:58:42.333Z,2.63
2018-09-11T12:01:10.796Z,2.50
2018-09-11T12:03:39.333Z,2.40
2018-09-11T12:06:07.749Z,2.90
2018-09-11T12:08:36.165Z,2.83
2018-09-11T12:11:04.744Z,2.67
2018-09-11T12:13:33.176Z,2.70
2018-09-11T12:16:01.584Z,2.20
2018-09-11T12:18:30.092Z,2.70
2018-09-11T12:20:58.517Z,2.60
2018-09-11T12:23:27.053Z,2.63
2018-09-11T12:25:55.542Z,2.60
2018-09-11T12:28:23.938Z,2.70
2018-09-11T12:30:53.015Z,2.17
2018-09-11T12:33:21.477Z,2.23
2018-09-11T12:35:49.910Z,2.63
2018-09-11T12:38:18.312Z,2.97
2018-09-11T12:40:46.772Z,2.57
2018-09-11T12:43:15.165Z,2.40
2018-09-11T12:45:43.934Z,2.40
2018-09-11T12:48:12.897Z,2.33
2018-09-11T12:50:40.755Z,2.50
2018-09-11T12:53:09.179Z,2.63
2018-09-11T12:55:37.589Z,2.73
2018-09-11T12:58:06.005Z,2.00
2018-09-11T13:03:09.692Z,2.30
2018-09-11T13:05:38.103Z,2.53
2018-09-11T13:08:06.521Z,2.50
2018-09-11T13:10:34.918Z,2.63
2018-09-11T13:13:03.325Z,2.53
2018-09-11T13:15:31.812Z,2.60
2018-09-11T13:18:00.215Z,2.43
2018-09-11T13:20:28.646Z,2.20
2018-09-11T13:22:57.060Z,2.40
2018-09-11T13:25:25.508Z,2.53
2018-09-11T13:27:53.865Z,2.87
2018-09-11T13:30:22.296Z,2.43
2018-09-11T13:32:50.708Z,2.57
2018-09-11T13:35:19.124Z,3.00
2018-09-11T13:37:47.560Z,2.60
2018-09-11T13:40:15.973Z,2.93
2018-09-11T13:42:44.388Z,2.93
2018-09-11T13:45:12.772Z,2.50
2018-09-11T13:47:41.440Z,2.53
2018-09-11T13:50:09.892Z,3.40
2018-09-11T13:52:38.321Z,2.50
2018-09-11T13:55:06.781Z,2.40
2018-09-11T13:57:35.200Z,2.80
2018-09-11T14:00:03.652Z,3.00
2018-09-11T14:02:32.104Z,2.30
2018-09-11T14:05:00.497Z,2.60
2018-09-11T14:07:28.971Z,2.33
2018-09-11T14:09:57.368Z,2.70
2018-09-11T14:12:25.773Z,2.33
2018-09-11T14:14:54.163Z,2.60
2018-09-11T14:17:22.663Z,2.80
2018-09-11T14:19:51.072Z,2.27
2018-09-11T14:22:19.857Z,3.10
2018-09-11T14:24:48.266Z,3.23
2018-09-11T14:27:16.792Z,2.90
2018-09-11T14:29:45.193Z,2.83
2018-09-11T14:32:13.639Z,2.83
2018-09-11T14:34:42.135Z,3.03
2018-09-11T14:37:10.545Z,2.03
2018-09-11T14:39:38.957Z,3.37
2018-09-11T14:42:07.468Z,2.40
2018-09-11T14:44:35.910Z,2.80
2018-09-11T14:47:04.828Z,2.30
2018-09-11T14:49:33.321Z,2.90
2018-09-11T14:52:01.781Z,2.37
2018-09-11T14:54:30.197Z,2.53
2018-09-11T14:56:58.685Z,2.60
2018-09-11T14:59:27.117Z,2.57
2018-09-11T15:01:55.567Z,2.80
2018-09-11T15:04:23.962Z,2.80
2018-09-11T15:06:52.566Z,2.23
2018-09-11T15:09:21.026Z,2.97
2018-09-11T15:11:49.453Z,2.30
2018-09-11T15:14:17.936Z,2.60
2018-09-11T15:16:46.333Z,2.83
2018-09-11T15:19:14.768Z,2.37
2018-09-11T15:21:43.193Z,2.67
2018-09-11T15:24:11.634Z,2.90
2018-09-11T15:26:40.214Z,2.83
2018-09-11T15:29:08.742Z,2.50
2018-09-11T15:31:37.164Z,2.70
2018-09-11T15:34:05.664Z,2.40
2018-09-11T15:36:34.098Z,2.30
2018-09-11T15:39:02.490Z,2.87
2018-09-11T15:41:30.928Z,2.50
2018-09-11T15:43:59.495Z,2.00
2018-09-11T15:46:27.850Z,2.67
2018-09-11T15:48:56.253Z,2.80
2018-09-11T15:51:24.708Z,2.53
2018-09-11T15:53:53.137Z,2.80
2018-09-11T15:56:21.582Z,2.93
2018-09-11T15:58:49.982Z,2.80
2018-09-11T16:01:18.525Z,2.80
2018-09-11T16:03:47.061Z,2.60
2018-09-11T16:06:15.534Z,2.63
2018-09-11T16:08:44.034Z,2.63
2018-09-11T16:11:12.464Z,2.90
2018-09-11T16:13:40.921Z,2.73
2018-09-11T16:16:09.348Z,2.40
2018-09-11T16:18:37.780Z,2.70
2018-09-11T16:21:06.363Z,2.60
2018-09-11T16:23:34.845Z,2.50
2018-09-11T16:26:03.307Z,3.20
2018-09-11T16:28:31.776Z,2.10
2018-09-11T16:31:00.405Z,2.50
2018-09-11T16:33:28.974Z,2.23
2018-09-11T16:35:57.393Z,2.63
2018-09-11T16:38:25.809Z,2.70
2018-09-11T16:40:54.374Z,2.37
2018-09-11T16:43:22.933Z,2.43
2018-09-11T16:45:51.663Z,2.60
2018-09-11T16:48:20.087Z,2.63
2018-09-11T16:50:48.500Z,2.27
2018-09-11T16:53:16.910Z,2.40
2018-09-11T16:55:45.337Z,3.03
2018-09-11T16:58:13.753Z,2.90
2018-09-11T17:00:42.186Z,2.17
2018-09-11T17:03:10.608Z,2.80
2018-09-11T17:05:39.058Z,2.50
2018-09-11T17:08:07.618Z,3.00
2018-09-11T17:10:36.036Z,2.97
2018-09-11T17:13:04.502Z,2.63
2018-09-11T17:15:32.988Z,2.17
2018-09-11T17:18:01.348Z,2.63
2018-09-11T17:20:29.785Z,2.83
2018-09-11T17:22:58.236Z,2.60
2018-09-11T17:25:26.762Z,2.60
2018-09-11T17:27:55.240Z,2.70
2018-09-11T17:30:23.690Z,2.67
2018-09-11T17:32:52.097Z,2.60
2018-09-11T17:35:20.554Z,2.57
2018-09-11T17:37:48.961Z,2.33
2018-09-11T17:40:17.426Z,2.80
2018-09-11T17:42:45.831Z,2.77
2018-09-11T17:45:14.253Z,2.87
2018-09-11T17:47:42.777Z,2.50
2018-09-11T17:50:11.385Z,3.27
2018-09-11T17:52:39.799Z,2.70
2018-09-11T17:55:08.242Z,2.80
2018-09-11T17:57:36.880Z,2.20
2018-09-11T18:00:05.423Z,2.93
2018-09-11T18:02:34.887Z,2.53
2018-09-11T18:05:04.401Z,2.93
2018-09-11T18:07:33.256Z,2.70
2018-09-11T18:10:03.212Z,2.67
2018-09-11T18:12:31.629Z,2.60
2018-09-11T18:15:01.358Z,2.90
2018-09-11T18:17:29.837Z,2.73
2018-09-11T18:19:58.313Z,2.73
2018-09-11T18:22:26.722Z,2.60
2018-09-11T18:24:55.565Z,3.10
2018-09-11T18:27:24.040Z,2.57
2018-09-11T18:29:52.486Z,2.53
2018-09-11T18:32:20.911Z,4.03
2018-09-11T18:34:49.521Z,3.63
2018-09-11T18:37:17.993Z,4.40
2018-09-11T18:39:46.341Z,3.43
2018-09-11T18:42:14.778Z,3.30
2018-09-11T18:44:43.258Z,2.77
2018-09-11T18:47:11.737Z,3.00
2018-09-11T18:49:40.976Z,2.83
2018-09-11T18:52:09.441Z,2.77
2018-09-11T18:54:37.857Z,2.77
2018-09-11T18:57:06.305Z,2.83
2018-09-11T18:59:34.813Z,3.10
2018-09-11T19:02:04.117Z,3.40
2018-09-11T19:04:32.566Z,2.87
2018-09-11T19:07:01.146Z,2.83
2018-09-11T19:09:29.724Z,2.90
2018-09-11T19:11:58.138Z,3.23
2018-09-11T19:14:26.565Z,3.30
2018-09-11T19:16:55.011Z,3.13
2018-09-11T19:19:23.416Z,2.90
2018-09-11T19:21:51.841Z,2.80
2018-09-11T19:24:20.370Z,3.00
2018-09-11T19:26:50.085Z,3.23
2018-09-11T19:29:18.424Z,3.20
2018-09-11T19:31:47.646Z,3.00
2018-09-11T19:34:16.178Z,3.30
2018-09-11T19:36:44.544Z,3.20
2018-09-11T19:39:13.024Z,3.20
2018-09-11T19:41:41.442Z,2.97
2018-09-11T19:44:09.857Z,3.07
2018-09-11T19:46:39.929Z,3.23
2018-09-11T19:49:08.472Z,3.90
2018-09-11T19:51:36.933Z,3.40
2018-09-11T19:54:05.523Z,3.00
2018-09-11T19:56:33.952Z,3.60
2018-09-11T19:59:02.402Z,3.53
2018-09-11T20:01:30.825Z,3.60
2018-09-11T20:03:59.285Z,3.60
2018-09-11T20:06:27.681Z,4.13
2018-09-11T20:08:56.250Z,3.17
2018-09-11T20:11:24.664Z,3.70
2018-09-11T20:13:53.186Z,3.30
2018-09-11T20:16:21.600Z,3.43
2018-09-11T20:18:50.088Z,3.20
2018-09-11T20:21:18.508Z,3.37
2018-09-11T20:23:46.896Z,3.37
2018-09-11T20:26:15.332Z,3.43
2018-09-11T20:28:43.752Z,3.47
2018-09-11T20:31:12.136Z,3.27
2018-09-11T20:33:40.569Z,3.23
2018-09-11T20:36:08.998Z,3.23
2018-09-11T20:38:38.037Z,3.23
2018-09-11T20:41:06.602Z,3.57
2018-09-11T20:43:35.018Z,3.20
2018-09-11T20:46:03.445Z,3.23
2018-09-11T20:48:32.532Z,2.90
2018-09-11T20:51:00.978Z,2.87
2018-09-11T20:53:29.488Z,3.20
2018-09-11T20:55:58.108Z,3.17
2018-09-11T20:58:26.549Z,3.40
2018-09-11T21:00:55.039Z,3.57
2018-09-11T21:03:23.418Z,2.57
2018-09-11T21:05:51.832Z,3.40
2018-09-11T21:08:20.306Z,3.27
2018-09-11T21:10:48.753Z,3.30
2018-09-11T21:13:17.164Z,4.20
2018-09-11T21:18:20.062Z,3.23
2018-09-11T21:20:49.043Z,3.27
2018-09-11T21:23:17.480Z,2.83
2018-09-11T21:25:45.971Z,3.20
2018-09-11T21:28:14.345Z,2.87
2018-09-11T21:30:42.786Z,2.90
2018-09-11T21:33:11.196Z,3.50
2018-09-11T21:35:39.620Z,3.37
2018-09-11T21:38:08.130Z,3.73
2018-09-11T21:40:36.676Z,3.97
2018-09-11T21:43:05.854Z,3.57
2018-09-11T21:45:34.248Z,4.50
2018-09-11T21:48:02.656Z,3.80
2018-09-11T21:50:31.080Z,4.20
2018-09-11T21:52:59.494Z,4.00
2018-09-11T21:55:27.887Z,3.53
2018-09-11T21:57:57.824Z,3.77
2018-09-11T22:00:26.285Z,3.60
2018-09-11T22:02:54.699Z,3.80
2018-09-11T22:05:23.137Z,3.57
2018-09-11T22:07:51.548Z,3.50
2018-09-11T22:10:20.061Z,3.80
2018-09-11T22:12:48.472Z,3.80
2018-09-11T22:15:16.895Z,3.63
2018-09-11T22:17:45.285Z,3.97
2018-09-11T22:20:13.676Z,3.23
2018-09-11T22:22:42.078Z,3.90
2018-09-11T22:25:10.472Z,3.30
2018-09-11T22:27:38.928Z,3.80
2018-09-11T22:30:07.433Z,3.40
2018-09-11T22:32:35.920Z,4.10
2018-09-11T22:35:04.331Z,3.20
2018-09-11T22:37:32.738Z,3.20
2018-09-11T22:40:01.154Z,3.83
2018-09-11T22:42:29.544Z,3.60
2018-09-11T22:44:57.980Z,4.03
2018-09-11T22:47:26.356Z,3.80
2018-09-11T22:49:54.795Z,3.57
2018-09-11T22:52:23.192Z,3.70
2018-09-11T22:54:51.620Z,3.83
2018-09-11T22:57:20.029Z,3.57
2018-09-11T22:59:48.430Z,3.40
2018-09-11T23:02:17.421Z,4.10
2018-09-11T23:04:45.828Z,3.60
2018-09-11T23:07:14.201Z,4.10
2018-09-11T23:09:42.604Z,4.23
2018-09-11T23:12:11.001Z,4.40
2018-09-11T23:14:39.393Z,4.00
2018-09-11T23:17:07.796Z,3.87
2018-09-11T23:19:36.201Z,3.83
2018-09-11T23:22:04.630Z,3.60
2018-09-11T23:24:33.036Z,3.83
2018-09-11T23:27:01.472Z,3.60
2018-09-11T23:29:29.944Z,3.73
2018-09-11T23:31:58.414Z,4.10
2018-09-11T23:34:26.849Z,4.07
2018-09-11T23:36:55.237Z,3.20
2018-09-11T23:39:23.648Z,3.73
2018-09-11T23:41:52.061Z,3.83
2018-09-11T23:44:20.497Z,3.73
2018-09-11T23:46:48.911Z,3.80
2018-09-11T23:49:17.297Z,3.93
2018-09-11T23:51:45.726Z,4.00
2018-09-11T23:54:14.100Z,3.90
2018-09-11T23:56:43.053Z,4.17
2018-09-11T23:59:11.474Z,4.10
